sensor_id;sensor_type;location;lat;lon;timestamp;P1;durP1;ratioP1;P2;durP2;ratioP2
54865;SDS011;40754;52.094;4.328;2023-03-13T00:02:07;30.52;;;6.30;;
54865;SDS011;40754;52.094;4.328;2023-03-13T00:04:33;30.13;;;5.60;;
54865;SDS011;40754;52.094;4.328;2023-03-13T00:06:58;32.08;;;7.35;;
54865;SDS011;40754;52.094;4.328;2023-03-13T00:09:27;21.10;;;5.40;;
54865;SDS011;40754;52.094;4.328;2023-03-13T00:11:56;23.95;;;5.75;;
54865;SDS011;40754;52.094;4.328;2023-03-13T00:14:22;25.23;;;5.60;;
54865;SDS011;40754;52.094;4.328;2023-03-13T00:16:47;26.52;;;6.03;;
54865;SDS011;40754;52.094;4.328;2023-03-13T00:19:14;24.65;;;5.72;;
54865;SDS011;40754;52.094;4.328;2023-03-13T00:21:39;24.33;;;6.38;;
54865;SDS011;40754;52.094;4.328;2023-03-13T00:24:05;21.17;;;6.10;;
54865;SDS011;40754;52.094;4.328;2023-03-13T00:26:33;23.80;;;6.97;;
54865;SDS011;40754;52.094;4.328;2023-03-13T00:28:59;26.77;;;8.48;;
54865;SDS011;40754;52.094;4.328;2023-03-13T00:31:25;25.20;;;8.27;;
54865;SDS011;40754;52.094;4.328;2023-03-13T00:33:54;25.30;;;8.63;;
54865;SDS011;40754;52.094;4.328;2023-03-13T00:36:23;29.80;;;9.90;;
54865;SDS011;40754;52.094;4.328;2023-03-13T00:38:53;23.73;;;9.18;;
54865;SDS011;40754;52.094;4.328;2023-03-13T00:41:23;25.63;;;9.38;;
54865;SDS011;40754;52.094;4.328;2023-03-13T00:43:49;24.10;;;9.57;;
54865;SDS011;40754;52.094;4.328;2023-03-13T00:46:16;20.83;;;9.27;;
54865;SDS011;40754;52.094;4.328;2023-03-13T00:48:43;30.80;;;11.20;;
54865;SDS011;40754;52.094;4.328;2023-03-13T00:51:09;20.10;;;10.40;;
54865;SDS011;40754;52.094;4.328;2023-03-13T00:53:35;20.67;;;10.88;;
54865;SDS011;40754;52.094;4.328;2023-03-13T00:56:09;23.52;;;10.52;;
54865;SDS011;40754;52.094;4.328;2023-03-13T00:58:37;21.50;;;10.73;;
54865;SDS011;40754;52.094;4.328;2023-03-13T01:01:08;20.77;;;9.32;;
54865;SDS011;40754;52.094;4.328;2023-03-13T01:03:41;23.70;;;9.35;;
54865;SDS011;40754;52.094;4.328;2023-03-13T01:06:09;18.98;;;9.25;;
54865;SDS011;40754;52.094;4.328;2023-03-13T01:08:36;27.75;;;9.85;;
54865;SDS011;40754;52.094;4.328;2023-03-13T01:11:04;25.52;;;9.35;;
54865;SDS011;40754;52.094;4.328;2023-03-13T01:13:37;22.55;;;9.80;;
54865;SDS011;40754;52.094;4.328;2023-03-13T01:16:03;26.08;;;10.63;;
54865;SDS011;40754;52.094;4.328;2023-03-13T01:18:34;28.98;;;10.52;;
54865;SDS011;40754;52.094;4.328;2023-03-13T01:21:02;28.77;;;9.95;;
54865;SDS011;40754;52.094;4.328;2023-03-13T01:23:31;29.73;;;10.73;;
54865;SDS011;40754;52.094;4.328;2023-03-13T01:25:57;25.65;;;10.77;;
54865;SDS011;40754;52.094;4.328;2023-03-13T01:28:24;24.73;;;10.20;;
54865;SDS011;40754;52.094;4.328;2023-03-13T01:30:50;28.90;;;11.25;;
54865;SDS011;40754;52.094;4.328;2023-03-13T01:33:16;24.42;;;11.45;;
54865;SDS011;40754;52.094;4.328;2023-03-13T01:35:42;27.88;;;10.40;;
54865;SDS011;40754;52.094;4.328;2023-03-13T01:38:09;25.42;;;11.23;;
54865;SDS011;40754;52.094;4.328;2023-03-13T01:40:43;21.67;;;11.90;;
54865;SDS011;40754;52.094;4.328;2023-03-13T01:51:11;25.63;;;11.50;;
54865;SDS011;40754;52.094;4.328;2023-03-13T01:53:42;19.10;;;11.13;;
54865;SDS011;40754;52.094;4.328;2023-03-13T01:56:10;25.00;;;11.43;;
54865;SDS011;40754;52.094;4.328;2023-03-13T01:58:40;24.20;;;11.80;;
54865;SDS011;40754;52.094;4.328;2023-03-13T02:01:09;22.63;;;11.82;;
54865;SDS011;40754;52.094;4.328;2023-03-13T02:03:34;26.15;;;12.32;;
54865;SDS011;40754;52.094;4.328;2023-03-13T02:06:05;26.20;;;12.65;;
54865;SDS011;40754;52.094;4.328;2023-03-13T02:08:37;28.27;;;12.85;;
54865;SDS011;40754;52.094;4.328;2023-03-13T02:11:09;21.88;;;13.00;;
54865;SDS011;40754;52.094;4.328;2023-03-13T02:13:45;31.77;;;14.13;;
54865;SDS011;40754;52.094;4.328;2023-03-13T02:16:13;28.48;;;14.45;;
54865;SDS011;40754;52.094;4.328;2023-03-13T02:18:41;23.10;;;13.45;;
54865;SDS011;40754;52.094;4.328;2023-03-13T02:21:13;27.58;;;14.00;;
54865;SDS011;40754;52.094;4.328;2023-03-13T02:24:01;21.45;;;13.02;;
54865;SDS011;40754;52.094;4.328;2023-03-13T02:26:37;25.40;;;13.45;;
54865;SDS011;40754;52.094;4.328;2023-03-13T02:29:03;27.90;;;14.40;;
54865;SDS011;40754;52.094;4.328;2023-03-13T02:31:29;26.77;;;13.18;;
54865;SDS011;40754;52.094;4.328;2023-03-13T02:33:55;24.73;;;13.50;;
54865;SDS011;40754;52.094;4.328;2023-03-13T02:36:23;25.52;;;12.73;;
54865;SDS011;40754;52.094;4.328;2023-03-13T02:38:56;21.75;;;12.70;;
54865;SDS011;40754;52.094;4.328;2023-03-13T02:41:25;20.80;;;11.88;;
54865;SDS011;40754;52.094;4.328;2023-03-13T02:43:52;19.63;;;11.43;;
54865;SDS011;40754;52.094;4.328;2023-03-13T02:46:18;19.02;;;9.38;;
54865;SDS011;40754;52.094;4.328;2023-03-13T02:48:46;21.92;;;7.97;;
54865;SDS011;40754;52.094;4.328;2023-03-13T02:51:15;17.52;;;7.15;;
54865;SDS011;40754;52.094;4.328;2023-03-13T02:53:57;17.70;;;6.63;;
54865;SDS011;40754;52.094;4.328;2023-03-13T02:56:25;17.67;;;6.60;;
54865;SDS011;40754;52.094;4.328;2023-03-13T02:58:52;17.98;;;6.60;;
54865;SDS011;40754;52.094;4.328;2023-03-13T03:01:18;20.45;;;6.22;;
54865;SDS011;40754;52.094;4.328;2023-03-13T03:03:44;15.80;;;5.88;;
54865;SDS011;40754;52.094;4.328;2023-03-13T03:06:10;13.23;;;5.35;;
54865;SDS011;40754;52.094;4.328;2023-03-13T03:08:36;12.73;;;4.75;;
54865;SDS011;40754;52.094;4.328;2023-03-13T03:11:05;11.48;;;4.85;;
54865;SDS011;40754;52.094;4.328;2023-03-13T03:13:32;14.40;;;4.35;;
54865;SDS011;40754;52.094;4.328;2023-03-13T03:15:58;15.25;;;4.72;;
54865;SDS011;40754;52.094;4.328;2023-03-13T03:18:24;15.85;;;5.47;;
54865;SDS011;40754;52.094;4.328;2023-03-13T03:20:50;14.55;;;4.68;;
54865;SDS011;40754;52.094;4.328;2023-03-13T03:23:15;17.92;;;4.60;;
54865;SDS011;40754;52.094;4.328;2023-03-13T03:25:41;13.18;;;5.03;;
54865;SDS011;40754;52.094;4.328;2023-03-13T03:28:07;17.25;;;4.53;;
54865;SDS011;40754;52.094;4.328;2023-03-13T03:30:33;10.50;;;4.35;;
54865;SDS011;40754;52.094;4.328;2023-03-13T03:33:01;15.00;;;5.40;;
54865;SDS011;40754;52.094;4.328;2023-03-13T03:35:27;15.40;;;5.20;;
54865;SDS011;40754;52.094;4.328;2023-03-13T03:37:52;20.38;;;5.57;;
54865;SDS011;40754;52.094;4.328;2023-03-13T03:40:18;17.67;;;5.25;;
54865;SDS011;40754;52.094;4.328;2023-03-13T03:42:45;19.45;;;5.38;;
54865;SDS011;40754;52.094;4.328;2023-03-13T03:45:11;16.10;;;5.72;;
54865;SDS011;40754;52.094;4.328;2023-03-13T03:47:37;17.15;;;5.35;;
54865;SDS011;40754;52.094;4.328;2023-03-13T03:50:03;18.98;;;5.03;;
54865;SDS011;40754;52.094;4.328;2023-03-13T03:52:32;15.27;;;5.60;;
54865;SDS011;40754;52.094;4.328;2023-03-13T03:54:58;16.65;;;5.07;;
54865;SDS011;40754;52.094;4.328;2023-03-13T03:57:24;13.70;;;4.90;;
54865;SDS011;40754;52.094;4.328;2023-03-13T03:59:50;17.15;;;5.60;;
54865;SDS011;40754;52.094;4.328;2023-03-13T04:02:15;16.45;;;5.85;;
54865;SDS011;40754;52.094;4.328;2023-03-13T04:04:41;13.13;;;5.57;;
54865;SDS011;40754;52.094;4.328;2023-03-13T04:07:07;16.88;;;5.45;;
54865;SDS011;40754;52.094;4.328;2023-03-13T04:09:33;10.02;;;5.03;;
54865;SDS011;40754;52.094;4.328;2023-03-13T04:11:59;16.63;;;5.70;;
54865;SDS011;40754;52.094;4.328;2023-03-13T04:14:25;15.13;;;5.38;;
54865;SDS011;40754;52.094;4.328;2023-03-13T04:16:50;12.13;;;5.53;;
54865;SDS011;40754;52.094;4.328;2023-03-13T04:19:16;15.75;;;5.63;;
54865;SDS011;40754;52.094;4.328;2023-03-13T04:21:41;10.52;;;5.55;;
54865;SDS011;40754;52.094;4.328;2023-03-13T04:24:07;17.73;;;5.32;;
54865;SDS011;40754;52.094;4.328;2023-03-13T04:26:33;19.38;;;6.07;;
54865;SDS011;40754;52.094;4.328;2023-03-13T04:28:59;20.15;;;5.63;;
54865;SDS011;40754;52.094;4.328;2023-03-13T04:31:24;17.52;;;5.90;;
54865;SDS011;40754;52.094;4.328;2023-03-13T04:33:52;15.02;;;5.40;;
54865;SDS011;40754;52.094;4.328;2023-03-13T04:36:18;20.77;;;5.60;;
54865;SDS011;40754;52.094;4.328;2023-03-13T04:38:43;19.85;;;5.45;;
54865;SDS011;40754;52.094;4.328;2023-03-13T04:41:09;14.95;;;4.90;;
54865;SDS011;40754;52.094;4.328;2023-03-13T04:43:34;16.23;;;5.53;;
54865;SDS011;40754;52.094;4.328;2023-03-13T04:46:00;18.27;;;5.50;;
54865;SDS011;40754;52.094;4.328;2023-03-13T04:48:26;14.05;;;4.65;;
54865;SDS011;40754;52.094;4.328;2023-03-13T04:50:52;19.63;;;5.30;;
54865;SDS011;40754;52.094;4.328;2023-03-13T04:53:18;11.30;;;4.90;;
54865;SDS011;40754;52.094;4.328;2023-03-13T04:55:43;16.33;;;5.30;;
54865;SDS011;40754;52.094;4.328;2023-03-13T04:58:09;18.73;;;4.55;;
54865;SDS011;40754;52.094;4.328;2023-03-13T05:00:35;24.23;;;5.75;;
54865;SDS011;40754;52.094;4.328;2023-03-13T05:03:01;21.67;;;4.82;;
54865;SDS011;40754;52.094;4.328;2023-03-13T05:05:26;21.55;;;5.22;;
54865;SDS011;40754;52.094;4.328;2023-03-13T05:07:52;16.70;;;4.50;;
54865;SDS011;40754;52.094;4.328;2023-03-13T05:10:18;16.30;;;4.47;;
54865;SDS011;40754;52.094;4.328;2023-03-13T05:12:44;15.63;;;4.45;;
54865;SDS011;40754;52.094;4.328;2023-03-13T05:15:10;19.48;;;4.63;;
54865;SDS011;40754;52.094;4.328;2023-03-13T05:17:39;19.48;;;4.82;;
54865;SDS011;40754;52.094;4.328;2023-03-13T05:20:10;22.55;;;4.82;;
54865;SDS011;40754;52.094;4.328;2023-03-13T05:22:37;14.98;;;4.10;;
54865;SDS011;40754;52.094;4.328;2023-03-13T05:25:03;14.73;;;3.92;;
54865;SDS011;40754;52.094;4.328;2023-03-13T05:27:29;12.90;;;3.55;;
54865;SDS011;40754;52.094;4.328;2023-03-13T05:29:55;18.92;;;4.00;;
54865;SDS011;40754;52.094;4.328;2023-03-13T05:32:21;15.55;;;3.83;;
54865;SDS011;40754;52.094;4.328;2023-03-13T05:34:47;15.05;;;4.10;;
54865;SDS011;40754;52.094;4.328;2023-03-13T05:37:12;15.95;;;3.67;;
54865;SDS011;40754;52.094;4.328;2023-03-13T05:39:38;15.15;;;3.92;;
54865;SDS011;40754;52.094;4.328;2023-03-13T05:42:04;16.75;;;3.65;;
54865;SDS011;40754;52.094;4.328;2023-03-13T05:44:29;13.68;;;4.35;;
54865;SDS011;40754;52.094;4.328;2023-03-13T05:46:55;14.35;;;3.80;;
54865;SDS011;40754;52.094;4.328;2023-03-13T05:49:21;13.60;;;4.75;;
54865;SDS011;40754;52.094;4.328;2023-03-13T05:51:47;14.98;;;3.95;;
54865;SDS011;40754;52.094;4.328;2023-03-13T05:54:13;17.98;;;4.22;;
54865;SDS011;40754;52.094;4.328;2023-03-13T05:56:39;15.85;;;4.20;;
54865;SDS011;40754;52.094;4.328;2023-03-13T05:59:05;13.98;;;3.97;;
54865;SDS011;40754;52.094;4.328;2023-03-13T06:01:31;21.52;;;4.65;;
54865;SDS011;40754;52.094;4.328;2023-03-13T06:03:56;23.73;;;4.43;;
54865;SDS011;40754;52.094;4.328;2023-03-13T06:06:22;21.80;;;4.82;;
54865;SDS011;40754;52.094;4.328;2023-03-13T06:08:47;22.98;;;5.00;;
54865;SDS011;40754;52.094;4.328;2023-03-13T06:11:13;22.35;;;5.40;;
54865;SDS011;40754;52.094;4.328;2023-03-13T06:13:38;22.63;;;5.65;;
54865;SDS011;40754;52.094;4.328;2023-03-13T06:16:04;19.67;;;5.03;;
54865;SDS011;40754;52.094;4.328;2023-03-13T06:18:31;15.77;;;4.75;;
54865;SDS011;40754;52.094;4.328;2023-03-13T06:20:57;23.42;;;5.63;;
54865;SDS011;40754;52.094;4.328;2023-03-13T06:23:24;19.13;;;5.55;;
54865;SDS011;40754;52.094;4.328;2023-03-13T06:25:49;19.35;;;5.30;;
54865;SDS011;40754;52.094;4.328;2023-03-13T06:28:17;17.42;;;5.20;;
54865;SDS011;40754;52.094;4.328;2023-03-13T06:30:43;19.98;;;5.45;;
54865;SDS011;40754;52.094;4.328;2023-03-13T06:33:08;15.48;;;4.82;;
54865;SDS011;40754;52.094;4.328;2023-03-13T06:35:37;17.17;;;4.50;;
54865;SDS011;40754;52.094;4.328;2023-03-13T06:38:04;15.05;;;4.65;;
54865;SDS011;40754;52.094;4.328;2023-03-13T06:40:29;20.23;;;4.95;;
54865;SDS011;40754;52.094;4.328;2023-03-13T06:42:55;18.83;;;4.60;;
54865;SDS011;40754;52.094;4.328;2023-03-13T06:45:21;18.00;;;4.93;;
54865;SDS011;40754;52.094;4.328;2023-03-13T06:47:47;14.35;;;4.80;;
54865;SDS011;40754;52.094;4.328;2023-03-13T06:50:15;14.90;;;4.80;;
54865;SDS011;40754;52.094;4.328;2023-03-13T06:52:41;15.73;;;4.97;;
54865;SDS011;40754;52.094;4.328;2023-03-13T06:55:07;15.38;;;4.45;;
54865;SDS011;40754;52.094;4.328;2023-03-13T06:57:33;19.10;;;5.28;;
54865;SDS011;40754;52.094;4.328;2023-03-13T07:00:00;16.75;;;5.03;;
54865;SDS011;40754;52.094;4.328;2023-03-13T07:02:27;13.70;;;5.05;;
54865;SDS011;40754;52.094;4.328;2023-03-13T07:04:53;14.93;;;4.20;;
54865;SDS011;40754;52.094;4.328;2023-03-13T07:07:19;14.18;;;4.55;;
54865;SDS011;40754;52.094;4.328;2023-03-13T07:09:45;19.20;;;4.55;;
54865;SDS011;40754;52.094;4.328;2023-03-13T07:12:12;15.82;;;4.40;;
54865;SDS011;40754;52.094;4.328;2023-03-13T07:14:38;15.07;;;4.40;;
54865;SDS011;40754;52.094;4.328;2023-03-13T07:17:03;16.52;;;4.50;;
54865;SDS011;40754;52.094;4.328;2023-03-13T07:19:29;17.83;;;5.28;;
54865;SDS011;40754;52.094;4.328;2023-03-13T07:21:55;15.55;;;4.68;;
54865;SDS011;40754;52.094;4.328;2023-03-13T07:24:21;12.65;;;4.13;;
54865;SDS011;40754;52.094;4.328;2023-03-13T07:26:47;25.67;;;4.50;;
54865;SDS011;40754;52.094;4.328;2023-03-13T07:29:13;18.90;;;4.72;;
54865;SDS011;40754;52.094;4.328;2023-03-13T07:31:40;11.93;;;4.20;;
54865;SDS011;40754;52.094;4.328;2023-03-13T07:34:09;17.10;;;4.13;;
54865;SDS011;40754;52.094;4.328;2023-03-13T07:36:37;16.52;;;3.90;;
54865;SDS011;40754;52.094;4.328;2023-03-13T07:39:04;15.68;;;4.30;;
54865;SDS011;40754;52.094;4.328;2023-03-13T07:41:30;19.63;;;4.97;;
54865;SDS011;40754;52.094;4.328;2023-03-13T07:43:56;13.70;;;3.50;;
54865;SDS011;40754;52.094;4.328;2023-03-13T07:46:22;18.33;;;3.97;;
54865;SDS011;40754;52.094;4.328;2023-03-13T07:48:48;18.17;;;4.32;;
54865;SDS011;40754;52.094;4.328;2023-03-13T07:51:15;15.68;;;4.00;;
54865;SDS011;40754;52.094;4.328;2023-03-13T07:53:45;15.02;;;4.00;;
54865;SDS011;40754;52.094;4.328;2023-03-13T07:56:12;15.18;;;3.60;;
54865;SDS011;40754;52.094;4.328;2023-03-13T07:58:40;13.65;;;3.78;;
54865;SDS011;40754;52.094;4.328;2023-03-13T08:03:51;11.88;;;3.20;;
54865;SDS011;40754;52.094;4.328;2023-03-13T08:06:20;9.98;;;3.13;;
54865;SDS011;40754;52.094;4.328;2023-03-13T08:08:50;12.80;;;3.00;;
54865;SDS011;40754;52.094;4.328;2023-03-13T08:11:21;10.93;;;3.28;;
54865;SDS011;40754;52.094;4.328;2023-03-13T08:13:49;12.68;;;3.60;;
54865;SDS011;40754;52.094;4.328;2023-03-13T08:16:16;10.45;;;2.42;;
54865;SDS011;40754;52.094;4.328;2023-03-13T08:18:49;15.07;;;3.65;;
54865;SDS011;40754;52.094;4.328;2023-03-13T08:21:17;11.52;;;3.00;;
54865;SDS011;40754;52.094;4.328;2023-03-13T08:23:47;10.27;;;3.03;;
54865;SDS011;40754;52.094;4.328;2023-03-13T08:26:17;11.65;;;3.25;;
54865;SDS011;40754;52.094;4.328;2023-03-13T08:28:45;18.38;;;2.80;;
54865;SDS011;40754;52.094;4.328;2023-03-13T08:31:17;17.40;;;3.30;;
54865;SDS011;40754;52.094;4.328;2023-03-13T08:33:50;12.45;;;3.10;;
54865;SDS011;40754;52.094;4.328;2023-03-13T08:36:18;18.23;;;3.50;;
54865;SDS011;40754;52.094;4.328;2023-03-13T08:38:49;22.05;;;3.67;;
54865;SDS011;40754;52.094;4.328;2023-03-13T08:41:16;17.00;;;3.20;;
54865;SDS011;40754;52.094;4.328;2023-03-13T08:43:43;14.35;;;3.50;;
54865;SDS011;40754;52.094;4.328;2023-03-13T08:46:09;20.38;;;3.80;;
54865;SDS011;40754;52.094;4.328;2023-03-13T08:48:35;21.85;;;3.58;;
54865;SDS011;40754;52.094;4.328;2023-03-13T08:51:06;11.85;;;3.50;;
54865;SDS011;40754;52.094;4.328;2023-03-13T08:53:36;22.25;;;4.45;;
54865;SDS011;40754;52.094;4.328;2023-03-13T08:56:03;15.30;;;3.80;;
54865;SDS011;40754;52.094;4.328;2023-03-13T08:58:29;16.85;;;3.80;;
54865;SDS011;40754;52.094;4.328;2023-03-13T09:01:03;17.48;;;3.17;;
54865;SDS011;40754;52.094;4.328;2023-03-13T09:03:30;21.10;;;4.40;;
54865;SDS011;40754;52.094;4.328;2023-03-13T09:05:56;23.23;;;4.35;;
54865;SDS011;40754;52.094;4.328;2023-03-13T09:08:23;18.65;;;3.88;;
54865;SDS011;40754;52.094;4.328;2023-03-13T09:10:55;15.85;;;3.75;;
54865;SDS011;40754;52.094;4.328;2023-03-13T09:13:22;16.83;;;4.07;;
54865;SDS011;40754;52.094;4.328;2023-03-13T09:15:54;14.55;;;3.58;;
54865;SDS011;40754;52.094;4.328;2023-03-13T09:18:29;20.35;;;3.88;;
54865;SDS011;40754;52.094;4.328;2023-03-13T09:20:55;21.88;;;4.43;;
54865;SDS011;40754;52.094;4.328;2023-03-13T09:23:21;19.63;;;4.10;;
54865;SDS011;40754;52.094;4.328;2023-03-13T09:25:48;28.10;;;4.25;;
54865;SDS011;40754;52.094;4.328;2023-03-13T09:28:16;18.67;;;3.88;;
54865;SDS011;40754;52.094;4.328;2023-03-13T09:30:42;14.80;;;4.07;;
54865;SDS011;40754;52.094;4.328;2023-03-13T09:33:08;13.95;;;3.33;;
54865;SDS011;40754;52.094;4.328;2023-03-13T09:35:34;16.80;;;3.45;;
54865;SDS011;40754;52.094;4.328;2023-03-13T09:38:02;18.88;;;3.25;;
54865;SDS011;40754;52.094;4.328;2023-03-13T09:40:28;14.13;;;3.45;;
54865;SDS011;40754;52.094;4.328;2023-03-13T09:42:55;19.73;;;3.38;;
54865;SDS011;40754;52.094;4.328;2023-03-13T09:47:54;14.00;;;3.60;;
54865;SDS011;40754;52.094;4.328;2023-03-13T09:50:31;22.02;;;3.58;;
54865;SDS011;40754;52.094;4.328;2023-03-13T09:53:10;14.73;;;2.35;;
54865;SDS011;40754;52.094;4.328;2023-03-13T09:55:40;20.08;;;3.03;;
54865;SDS011;40754;52.094;4.328;2023-03-13T09:58:15;7.55;;;2.65;;
54865;SDS011;40754;52.094;4.328;2023-03-13T10:01:02;15.35;;;2.85;;
54865;SDS011;40754;52.094;4.328;2023-03-13T10:03:39;16.15;;;2.88;;
54865;SDS011;40754;52.094;4.328;2023-03-13T10:06:18;11.68;;;2.70;;
54865;SDS011;40754;52.094;4.328;2023-03-13T10:08:44;11.82;;;2.47;;
54865;SDS011;40754;52.094;4.328;2023-03-13T10:13:48;9.52;;;3.33;;
54865;SDS011;40754;52.094;4.328;2023-03-13T10:16:44;8.98;;;3.10;;
54865;SDS011;40754;52.094;4.328;2023-03-13T10:19:18;18.73;;;3.80;;
54865;SDS011;40754;52.094;4.328;2023-03-13T10:21:51;12.82;;;3.38;;
54865;SDS011;40754;52.094;4.328;2023-03-13T10:46:46;21.08;;;4.13;;
54865;SDS011;40754;52.094;4.328;2023-03-13T11:16:15;17.95;;;4.55;;
54865;SDS011;40754;52.094;4.328;2023-03-13T11:33:53;29.02;;;5.43;;
54865;SDS011;40754;52.094;4.328;2023-03-13T11:39:51;27.92;;;4.93;;
54865;SDS011;40754;52.094;4.328;2023-03-13T11:45:16;33.08;;;6.28;;
54865;SDS011;40754;52.094;4.328;2023-03-13T11:48:24;27.20;;;5.47;;
54865;SDS011;40754;52.094;4.328;2023-03-13T13:14:02;28.33;;;5.38;;
54865;SDS011;40754;52.094;4.328;2023-03-13T13:37:40;34.97;;;6.38;;
54865;SDS011;40754;52.094;4.328;2023-03-13T13:42:51;23.67;;;5.70;;
54865;SDS011;40754;52.094;4.328;2023-03-13T13:47:49;27.92;;;5.97;;
54865;SDS011;40754;52.094;4.328;2023-03-13T13:50:20;21.77;;;5.53;;
54865;SDS011;40754;52.094;4.328;2023-03-13T13:52:48;29.25;;;6.25;;
54865;SDS011;40754;52.094;4.328;2023-03-13T13:57:59;28.10;;;5.70;;
54865;SDS011;40754;52.094;4.328;2023-03-13T14:00:28;23.50;;;5.28;;
54865;SDS011;40754;52.094;4.328;2023-03-13T14:03:11;34.60;;;5.88;;
54865;SDS011;40754;52.094;4.328;2023-03-13T14:05:46;28.48;;;5.03;;
54865;SDS011;40754;52.094;4.328;2023-03-13T14:08:19;25.63;;;5.15;;
54865;SDS011;40754;52.094;4.328;2023-03-13T14:13:39;24.13;;;6.07;;
54865;SDS011;40754;52.094;4.328;2023-03-13T14:16:38;26.13;;;5.57;;
54865;SDS011;40754;52.094;4.328;2023-03-13T14:18:56;30.80;;;6.53;;
54865;SDS011;40754;52.094;4.328;2023-03-13T14:21:25;23.13;;;6.38;;
54865;SDS011;40754;52.094;4.328;2023-03-13T14:23:51;29.20;;;6.28;;
54865;SDS011;40754;52.094;4.328;2023-03-13T14:26:27;27.45;;;6.28;;
54865;SDS011;40754;52.094;4.328;2023-03-13T14:31:27;29.92;;;5.78;;
54865;SDS011;40754;52.094;4.328;2023-03-13T14:34:01;27.10;;;5.72;;
54865;SDS011;40754;52.094;4.328;2023-03-13T14:36:28;27.23;;;5.78;;
54865;SDS011;40754;52.094;4.328;2023-03-13T14:38:55;22.23;;;5.47;;
54865;SDS011;40754;52.094;4.328;2023-03-13T14:44:00;28.60;;;6.38;;
54865;SDS011;40754;52.094;4.328;2023-03-13T14:46:30;27.15;;;6.32;;
54865;SDS011;40754;52.094;4.328;2023-03-13T14:49:06;33.72;;;6.43;;
54865;SDS011;40754;52.094;4.328;2023-03-13T14:57:21;33.53;;;6.35;;
54865;SDS011;40754;52.094;4.328;2023-03-13T14:59:51;31.67;;;6.15;;
54865;SDS011;40754;52.094;4.328;2023-03-13T15:02:20;26.95;;;6.95;;
54865;SDS011;40754;52.094;4.328;2023-03-13T15:05:00;30.35;;;6.10;;
54865;SDS011;40754;52.094;4.328;2023-03-13T15:12:48;31.55;;;6.22;;
54865;SDS011;40754;52.094;4.328;2023-03-13T15:15:15;22.08;;;5.95;;
54865;SDS011;40754;52.094;4.328;2023-03-13T15:17:41;30.08;;;5.75;;
54865;SDS011;40754;52.094;4.328;2023-03-13T15:20:08;24.27;;;5.80;;
54865;SDS011;40754;52.094;4.328;2023-03-13T15:22:38;39.95;;;6.07;;
54865;SDS011;40754;52.094;4.328;2023-03-13T15:25:10;27.77;;;6.57;;
54865;SDS011;40754;52.094;4.328;2023-03-13T15:27:38;39.92;;;6.80;;
54865;SDS011;40754;52.094;4.328;2023-03-13T15:30:04;22.38;;;5.97;;
54865;SDS011;40754;52.094;4.328;2023-03-13T15:32:37;28.00;;;5.45;;
54865;SDS011;40754;52.094;4.328;2023-03-13T15:35:15;25.92;;;5.90;;
54865;SDS011;40754;52.094;4.328;2023-03-13T15:37:56;31.08;;;6.15;;
54865;SDS011;40754;52.094;4.328;2023-03-13T15:40:23;40.15;;;6.10;;
54865;SDS011;40754;52.094;4.328;2023-03-13T15:42:49;24.35;;;5.68;;
54865;SDS011;40754;52.094;4.328;2023-03-13T15:45:16;33.08;;;7.00;;
54865;SDS011;40754;52.094;4.328;2023-03-13T15:47:43;34.83;;;6.38;;
54865;SDS011;40754;52.094;4.328;2023-03-13T15:50:12;36.58;;;5.78;;
54865;SDS011;40754;52.094;4.328;2023-03-13T15:52:39;26.48;;;6.10;;
54865;SDS011;40754;52.094;4.328;2023-03-13T15:55:05;26.27;;;5.65;;
54865;SDS011;40754;52.094;4.328;2023-03-13T15:57:34;29.83;;;6.10;;
54865;SDS011;40754;52.094;4.328;2023-03-13T16:00:05;36.88;;;5.70;;
54865;SDS011;40754;52.094;4.328;2023-03-13T16:02:34;27.35;;;6.35;;
54865;SDS011;40754;52.094;4.328;2023-03-13T16:05:01;31.45;;;5.85;;
54865;SDS011;40754;52.094;4.328;2023-03-13T16:07:28;33.70;;;5.70;;
54865;SDS011;40754;52.094;4.328;2023-03-13T16:09:54;29.83;;;6.18;;
54865;SDS011;40754;52.094;4.328;2023-03-13T16:12:21;29.85;;;6.75;;
54865;SDS011;40754;52.094;4.328;2023-03-13T16:14:47;27.40;;;6.05;;
54865;SDS011;40754;52.094;4.328;2023-03-13T16:17:17;35.60;;;6.82;;
54865;SDS011;40754;52.094;4.328;2023-03-13T16:19:43;34.13;;;7.15;;
54865;SDS011;40754;52.094;4.328;2023-03-13T16:22:11;30.83;;;6.88;;
54865;SDS011;40754;52.094;4.328;2023-03-13T16:24:37;29.73;;;6.30;;
54865;SDS011;40754;52.094;4.328;2023-03-13T16:27:19;32.92;;;5.93;;
54865;SDS011;40754;52.094;4.328;2023-03-13T16:29:45;31.27;;;6.28;;
54865;SDS011;40754;52.094;4.328;2023-03-13T16:32:12;28.98;;;5.95;;
54865;SDS011;40754;52.094;4.328;2023-03-13T16:34:39;41.08;;;7.07;;
54865;SDS011;40754;52.094;4.328;2023-03-13T16:37:15;34.33;;;6.88;;
54865;SDS011;40754;52.094;4.328;2023-03-13T16:39:42;33.25;;;6.07;;
54865;SDS011;40754;52.094;4.328;2023-03-13T16:42:09;41.80;;;6.55;;
54865;SDS011;40754;52.094;4.328;2023-03-13T16:44:36;27.45;;;6.80;;
54865;SDS011;40754;52.094;4.328;2023-03-13T16:47:14;32.22;;;6.82;;
54865;SDS011;40754;52.094;4.328;2023-03-13T16:49:47;28.63;;;6.28;;
54865;SDS011;40754;52.094;4.328;2023-03-13T16:52:14;30.83;;;6.72;;
54865;SDS011;40754;52.094;4.328;2023-03-13T16:54:43;37.55;;;7.15;;
54865;SDS011;40754;52.094;4.328;2023-03-13T16:57:10;25.60;;;7.18;;
54865;SDS011;40754;52.094;4.328;2023-03-13T16:59:41;38.58;;;6.63;;
54865;SDS011;40754;52.094;4.328;2023-03-13T17:02:23;35.33;;;6.82;;
54865;SDS011;40754;52.094;4.328;2023-03-13T17:04:52;37.90;;;7.75;;
54865;SDS011;40754;52.094;4.328;2023-03-13T17:07:24;40.13;;;7.22;;
54865;SDS011;40754;52.094;4.328;2023-03-13T17:09:54;35.85;;;6.28;;
54865;SDS011;40754;52.094;4.328;2023-03-13T17:12:20;44.90;;;7.97;;
54865;SDS011;40754;52.094;4.328;2023-03-13T17:14:46;35.20;;;7.10;;
54865;SDS011;40754;52.094;4.328;2023-03-13T17:17:15;30.25;;;6.28;;
54865;SDS011;40754;52.094;4.328;2023-03-13T17:19:48;35.20;;;7.97;;
54865;SDS011;40754;52.094;4.328;2023-03-13T17:22:16;32.85;;;7.20;;
54865;SDS011;40754;52.094;4.328;2023-03-13T17:24:42;39.30;;;7.03;;
54865;SDS011;40754;52.094;4.328;2023-03-13T17:27:15;46.53;;;8.40;;
54865;SDS011;40754;52.094;4.328;2023-03-13T17:29:44;42.03;;;7.15;;
54865;SDS011;40754;52.094;4.328;2023-03-13T17:32:12;41.80;;;7.25;;
54865;SDS011;40754;52.094;4.328;2023-03-13T17:34:51;37.78;;;7.78;;
54865;SDS011;40754;52.094;4.328;2023-03-13T17:37:25;37.47;;;6.97;;
54865;SDS011;40754;52.094;4.328;2023-03-13T17:42:17;39.78;;;6.82;;
54865;SDS011;40754;52.094;4.328;2023-03-13T17:44:45;36.60;;;7.15;;
54865;SDS011;40754;52.094;4.328;2023-03-13T17:47:15;38.08;;;6.43;;
54865;SDS011;40754;52.094;4.328;2023-03-13T17:49:47;40.03;;;7.05;;
54865;SDS011;40754;52.094;4.328;2023-03-13T17:52:22;33.38;;;6.72;;
54865;SDS011;40754;52.094;4.328;2023-03-13T17:54:49;42.38;;;7.63;;
54865;SDS011;40754;52.094;4.328;2023-03-13T17:57:18;35.50;;;7.13;;
54865;SDS011;40754;52.094;4.328;2023-03-13T17:59:48;42.33;;;7.05;;
54865;SDS011;40754;52.094;4.328;2023-03-13T18:02:14;44.75;;;7.25;;
54865;SDS011;40754;52.094;4.328;2023-03-13T18:04:53;34.15;;;6.57;;
54865;SDS011;40754;52.094;4.328;2023-03-13T18:07:21;46.78;;;7.28;;
54865;SDS011;40754;52.094;4.328;2023-03-13T18:09:49;32.58;;;7.38;;
54865;SDS011;40754;52.094;4.328;2023-03-13T18:12:15;32.33;;;6.43;;
54865;SDS011;40754;52.094;4.328;2023-03-13T18:14:42;40.55;;;7.90;;
54865;SDS011;40754;52.094;4.328;2023-03-13T18:17:12;43.20;;;8.52;;
54865;SDS011;40754;52.094;4.328;2023-03-13T18:19:42;37.05;;;6.55;;
54865;SDS011;40754;52.094;4.328;2023-03-13T18:22:11;37.08;;;6.65;;